Time;durP1;ratioP1;P1;durP2;ratioP2;P2;SDS_P1;SDS_P2;PMS_P1;PMS_P2;Temp;Humidity;BMP_temperature;BMP_pressure;BME280_temperature;BME280_humidity;BME280_pressure;Samples;Min_cycle;Max_cycle;Signal;HPM_P1;HPM_P2
2023/11/01 00:01:47;;;;;;;0.10;0.10;;;11.30;99.90;;;;;;6249421;22;20381;-90
2023/11/01 00:04:12;;;;;;;0.05;0.05;;;11.30;99.90;;;;;;6249755;22;20022;-90
2023/11/01 00:06:38;;;;;;;0.00;0.00;;;11.30;99.90;;;;;;6249229;22;20435;-90
2023/11/01 00:09:04;;;;;;;0.00;0.00;;;;;;;;;;6249468;22;20027;-90
2023/11/01 00:11:29;;;;;;;0.00;0.00;;;;;;;;;;6249853;22;20031;-90
2023/11/01 00:13:55;;;;;;;0.00;0.00;;;;;;;;;;6248271;22;20004;-89
2023/11/01 00:16:21;;;;;;;0.00;0.00;;;;;;;;;;6248530;22;20106;-90
2023/11/01 00:18:47;;;;;;;0.00;0.00;;;;;;;;;;6249736;22;20006;-90
2023/11/01 00:21:13;;;;;;;0.00;0.00;;;11.00;99.90;;;;;;6250360;22;20027;-89
2023/11/01 00:23:39;;;;;;;0.00;0.00;;;;;;;;;;6251619;22;20008;-89
2023/11/01 00:26:06;;;;;;;0.00;0.00;;;11.10;99.90;;;;;;6251457;22;20006;-90
2023/11/01 00:28:32;;;;;;;0.00;0.00;;;;;;;;;;6250833;22;20010;-90
2023/11/01 00:30:58;;;;;;;0.00;0.00;;;;;;;;;;6250998;22;20086;-89
2023/11/01 00:33:24;;;;;;;0.00;0.00;;;;;;;;;;6251574;22;20022;-89
2023/11/01 00:35:50;;;;;;;0.00;0.00;;;;;;;;;;6251428;22;20044;-90
2023/11/01 00:38:20;;;;;;;0.00;0.00;;;11.20;99.90;;;;;;6251112;22;20058;-90
2023/11/01 00:40:46;;;;;;;0.00;0.00;;;;;;;;;;6250925;22;20454;-92
2023/11/01 00:43:12;;;;;;;0.00;0.00;;;;;;;;;;6250804;22;20455;-90
2023/11/01 00:45:38;;;;;;;0.00;0.00;;;;;;;;;;6250697;22;20000;-89
2023/11/01 00:48:05;;;;;;;0.00;0.00;;;11.20;99.90;;;;;;6250783;22;20445;-90
2023/11/01 00:50:31;;;;;;;0.00;0.00;;;;;;;;;;6251085;22;20091;-90
2023/11/01 00:52:57;;;;;;;0.00;0.00;;;;;;;;;;6251150;22;20379;-90
2023/11/01 00:55:23;;;;;;;0.00;0.00;;;;;;;;;;6251284;22;20077;-90
2023/11/01 00:57:49;;;;;;;0.00;0.00;;;;;;;;;;6250619;22;20435;-90
2023/11/01 01:00:16;;;;;;;0.00;0.00;;;11.20;99.90;;;;;;6251100;22;20011;-92
2023/11/01 01:02:42;;;;;;;0.00;0.00;;;11.10;99.90;;;;;;6250983;22;20057;-92
2023/11/01 01:05:08;;;;;;;0.00;0.00;;;;;;;;;;6251059;22;20004;-91
2023/11/01 01:07:34;;;;;;;0.00;0.00;;;;;;;;;;6251004;22;20010;-91
2023/11/01 01:10:00;;;;;;;0.00;0.00;;;11.20;99.90;;;;;;6250913;22;20027;-90
2023/11/01 01:12:26;;;;;;;0.00;0.00;;;;;;;;;;6251044;22;20430;-90
2023/11/01 01:14:52;;;;;;;0.00;0.00;;;;;;;;;;6250969;22;20422;-90
2023/11/01 01:17:18;;;;;;;0.00;0.00;;;11.00;99.90;;;;;;6251101;22;19995;-91
2023/11/01 01:19:43;;;;;;;0.00;0.00;;;11.10;99.90;;;;;;6250616;22;20039;-89
2023/11/01 01:22:09;;;;;;;0.00;0.00;;;;;;;;;;6250791;22;20069;-90
2023/11/01 01:24:35;;;;;;;0.00;0.00;;;;;;;;;;6250837;22;20003;-90
2023/11/01 01:27:01;;;;;;;0.00;0.00;;;;;;;;;;6251157;22;20003;-90
2023/11/01 01:29:27;;;;;;;0.00;0.00;;;;;;;;;;6251237;22;19999;-90
2023/11/01 01:31:53;;;;;;;0.00;0.00;;;;;;;;;;6250963;22;20450;-89
2023/11/01 01:34:20;;;;;;;0.00;0.00;;;;;;;;;;6250470;22;20015;-90
2023/11/01 01:36:46;;;;;;;0.00;0.00;;;;;;;;;;6250661;22;20014;-90
2023/11/01 01:39:11;;;;;;;0.00;0.00;;;;;;;;;;6250464;22;20075;-90
2023/11/01 01:41:38;;;;;;;0.00;0.00;;;11.20;99.90;;;;;;6250424;22;20392;-90
2023/11/01 01:44:05;;;;;;;0.00;0.00;;;;;;;;;;6250584;22;20134;-89
2023/11/01 01:46:31;;;;;;;0.00;0.00;;;;;;;;;;6249943;22;20004;-90
2023/11/01 01:48:58;;;;;;;0.00;0.00;;;11.20;99.90;;;;;;6250558;22;20378;-90
2023/11/01 01:51:24;;;;;;;0.00;0.00;;;;;;;;;;6250267;22;20438;-91
2023/11/01 01:53:50;;;;;;;0.00;0.00;;;;;;;;;;6250271;22;20003;-91
2023/11/01 01:56:18;;;;;;;0.00;0.00;;;11.30;99.90;;;;;;6250138;22;20004;-90
2023/11/01 01:58:45;;;;;;;0.00;0.00;;;;;;;;;;6250259;22;20003;-89
2023/11/01 02:01:12;;;;;;;0.00;0.00;;;;;;;;;;6249799;22;20008;-90
2023/11/01 02:03:38;;;;;;;0.00;0.00;;;;;;;;;;6250386;22;20049;-90
2023/11/01 02:06:05;;;;;;;0.00;0.00;;;11.20;99.90;;;;;;6249528;22;20015;-90
2023/11/01 02:08:31;;;;;;;0.00;0.00;;;;;;;;;;6249809;22;20054;-89
2023/11/01 02:10:57;;;;;;;0.00;0.00;;;;;;;;;;6249925;22;20008;-90
2023/11/01 02:13:23;;;;;;;0.00;0.00;;;;;;;;;;6249954;22;20483;-90
2023/11/01 02:15:49;;;;;;;0.00;0.00;;;11.20;99.90;;;;;;6249810;22;20071;-91
2023/11/01 02:18:15;;;;;;;0.00;0.00;;;;;;;;;;6249969;22;20004;-90
2023/11/01 02:20:44;;;;;;;0.00;0.00;;;11.30;99.90;;;;;;6249833;22;20026;-90
2023/11/01 02:23:27;;;;;;;0.00;0.00;;;11.30;99.90;;;;;;6249862;22;20016;-90
2023/11/01 02:25:55;;;;;;;0.00;0.00;;;;;;;;;;6249833;22;20094;-91
2023/11/01 02:28:21;;;;;;;0.00;0.00;;;;;;;;;;6250083;22;20035;-90
2023/11/01 02:30:47;;;;;;;0.00;0.00;;;;;;;;;;6249762;22;20477;-90
2023/11/01 02:33:13;;;;;;;0.00;0.00;;;;;;;;;;6249770;22;20003;-89
2023/11/01 02:35:39;;;;;;;0.00;0.00;;;;;;;;;;6249850;22;20004;-90
2023/11/01 02:38:05;;;;;;;0.00;0.00;;;;;;;;;;6251609;22;20058;-91
2023/11/01 02:40:31;;;;;;;0.00;0.00;;;;;;;;;;6251102;22;20050;-91
2023/11/01 02:42:57;;;;;;;0.00;0.00;;;;;;;;;;6250077;22;20008;-90
2023/11/01 02:45:23;;;;;;;0.00;0.00;;;;;;;;;;6249755;22;20438;-89
2023/11/01 02:47:49;;;;;;;0.00;0.00;;;;;;;;;;6249231;22;19999;-90
2023/11/01 02:50:16;;;;;;;0.00;0.00;;;11.50;99.90;;;;;;6250261;22;19996;-90
2023/11/01 02:52:42;;;;;;;0.00;0.00;;;;;;;;;;6250297;22;20004;-91
2023/11/01 02:55:12;;;;;;;0.00;0.00;;;10.30;99.90;;;;;;6249756;22;19999;-90
2023/11/01 02:57:39;;;;;;;0.00;0.00;;;;;;;;;;6249970;22;20000;-91
2023/11/01 03:00:07;;;;;;;0.00;0.00;;;11.50;99.90;;;;;;6249204;22;20007;-89
2023/11/01 03:02:36;;;;;;;0.00;0.00;;;11.50;99.90;;;;;;6249528;22;20446;-90
2023/11/01 03:05:03;;;;;;;0.00;0.00;;;11.40;99.90;;;;;;6249501;22;20642;-90
2023/11/01 03:07:29;;;;;;;0.00;0.00;;;;;;;;;;6249403;22;20048;-90
2023/11/01 03:09:55;;;;;;;0.00;0.00;;;;;;;;;;6249469;22;20026;-91
2023/11/01 03:12:21;;;;;;;0.00;0.00;;;;;;;;;;6249672;22;20042;-90
2023/11/01 03:14:47;;;;;;;0.05;0.05;;;;;;;;;;6249612;22;20000;-90
2023/11/01 03:17:13;;;;;;;0.00;0.00;;;;;;;;;;6249061;22;20003;-91
2023/11/01 03:19:39;;;;;;;0.00;0.00;;;;;;;;;;6249761;22;20032;-90
2023/11/01 03:22:05;;;;;;;0.00;0.00;;;;;;;;;;6249466;22;20098;-90
2023/11/01 03:24:31;;;;;;;0.00;0.00;;;11.60;99.90;;;;;;6249498;22;20035;-92
2023/11/01 03:26:58;;;;;;;0.10;0.10;;;;;;;;;;6249262;22;20103;-92
2023/11/01 03:29:24;;;;;;;0.00;0.00;;;11.60;99.90;;;;;;6249473;22;20077;-90
2023/11/01 03:31:50;;;;;;;0.00;0.00;;;;;;;;;;6249763;22;20415;-90
2023/11/01 03:34:16;;;;;;;0.00;0.00;;;;;;;;;;6249355;22;20004;-90
2023/11/01 03:36:42;;;;;;;0.00;0.00;;;;;;;;;;6249610;22;20039;-91
2023/11/01 03:39:09;;;;;;;0.00;0.00;;;11.70;99.90;;;;;;6249565;22;20338;-90
2023/11/01 03:41:41;;;;;;;0.00;0.00;;;11.70;99.90;;;;;;6249577;22;20004;-89
2023/11/01 03:44:07;;;;;;;0.00;0.00;;;11.60;99.90;;;;;;6249580;22;20008;-90
2023/11/01 03:46:34;;;;;;;0.00;0.00;;;;;;;;;;6249268;22;20033;-91
2023/11/01 03:49:00;;;;;;;0.00;0.00;;;;;;;;;;6249186;22;20082;-90
2023/11/01 03:51:26;;;;;;;0.00;0.00;;;11.80;99.90;;;;;;6249306;22;19999;-89
2023/11/01 03:53:52;;;;;;;0.00;0.00;;;;;;;;;;6248818;22;20086;-90
2023/11/01 03:56:18;;;;;;;0.00;0.00;;;;;;;;;;6249466;22;20439;-91
2023/11/01 03:58:44;;;;;;;0.00;0.00;;;;;;;;;;6249328;22;20057;-90
2023/11/01 04:01:10;;;;;;;0.00;0.00;;;;;;;;;;6249513;22;20007;-90
2023/11/01 04:03:36;;;;;;;0.00;0.00;;;;;;;;;;6249256;22;20000;-90
2023/11/01 04:06:02;;;;;;;0.00;0.00;;;11.80;99.90;;;;;;6249268;22;20119;-91
2023/11/01 04:08:28;;;;;;;0.00;0.00;;;;;;;;;;6248886;22;20011;-90
2023/11/01 04:10:54;;;;;;;0.00;0.00;;;;;;;;;;6249271;22;20000;-90
2023/11/01 04:13:20;;;;;;;0.00;0.00;;;;;;;;;;6249302;22;20003;-91
2023/11/01 04:15:46;;;;;;;0.00;0.00;;;;;;;;;;6249372;22;20011;-90
2023/11/01 04:18:12;;;;;;;0.00;0.00;;;;;;;;;;6249258;22;20008;-90
2023/11/01 04:20:38;;;;;;;0.00;0.00;;;;;;;;;;6249130;22;20008;-90
2023/11/01 04:23:05;;;;;;;0.00;0.00;;;;;;;;;;6249427;22;20043;-90
2023/11/01 04:25:32;;;;;;;0.00;0.00;;;;;;;;;;6249150;22;20011;-90
2023/11/01 04:27:58;;;;;;;0.00;0.00;;;;;;;;;;6249758;22;20331;-90
2023/11/01 04:30:24;;;;;;;0.00;0.00;;;;;;;;;;6251272;22;19999;-91
2023/11/01 04:32:50;;;;;;;0.00;0.00;;;;;;;;;;6250745;22;20119;-90
2023/11/01 04:35:16;;;;;;;0.00;0.00;;;11.70;99.90;;;;;;6251283;22;20000;-91
2023/11/01 04:37:42;;;;;;;0.00;0.00;;;;;;;;;;6251208;22;20032;-91
2023/11/01 04:40:11;;;;;;;0.00;0.00;;;11.70;99.90;;;;;;6250949;22;20057;-91
2023/11/01 04:42:41;;;;;;;0.00;0.00;;;11.60;99.90;;;;;;6251431;22;20070;-91
2023/11/01 04:45:09;;;;;;;0.00;0.00;;;11.50;99.90;;;;;;6251297;22;20000;-90
2023/11/01 04:47:35;;;;;;;0.00;0.00;;;11.70;99.90;;;;;;6250604;22;20012;-91
2023/11/01 04:50:02;;;;;;;0.00;0.00;;;;;;;;;;6250704;22;20018;-90
2023/11/01 04:52:28;;;;;;;0.00;0.00;;;;;;;;;;6250646;22;20003;-91
2023/11/01 04:54:54;;;;;;;0.00;0.00;;;;;;;;;;6250917;22;20066;-89
2023/11/01 04:57:20;;;;;;;0.00;0.00;;;;;;;;;;6250568;22;20003;-90
2023/11/01 04:59:46;;;;;;;0.00;0.00;;;;;;;;;;6250898;22;20000;-90
2023/11/01 05:02:12;;;;;;;0.00;0.00;;;;;;;;;;6251018;22;20038;-90
2023/11/01 05:04:38;;;;;;;0.00;0.00;;;;;;;;;;6250974;22;20007;-91
2023/11/01 05:07:04;;;;;;;0.00;0.00;;;;;;;;;;6250618;22;20012;-90
2023/11/01 05:09:30;;;;;;;0.00;0.00;;;;;;;;;;6250763;22;20439;-91
2023/11/01 05:11:56;;;;;;;0.00;0.00;;;;;;;;;;6251038;22;20010;-90
2023/11/01 05:14:22;;;;;;;0.00;0.00;;;;;;;;;;6250784;22;20031;-89
2023/11/01 05:16:48;;;;;;;0.00;0.00;;;11.70;99.90;;;;;;6250705;22;20008;-90
2023/11/01 05:19:14;;;;;;;0.00;0.00;;;;;;;;;;6250584;22;20090;-91
2023/11/01 05:21:42;;;;;;;0.00;0.00;;;;;;;;;;6249934;22;20091;-91
2023/11/01 05:24:08;;;;;;;0.00;0.00;;;;;;;;;;6250312;22;20030;-90
2023/11/01 05:26:34;;;;;;;0.00;0.00;;;;;;;;;;6249984;22;20350;-90
2023/11/01 05:29:00;;;;;;;0.00;0.00;;;;;;;;;;6250210;22;20011;-91
2023/11/01 05:31:27;;;;;;;0.00;0.00;;;;;;;;;;6250179;22;20004;-91
2023/11/01 05:33:53;;;;;;;0.00;0.00;;;11.80;99.90;;;;;;6277273;22;20011;-90
2023/11/01 05:36:19;;;;;;;0.00;0.00;;;;;;;;;;6249894;22;20381;-91
2023/11/01 05:38:45;;;;;;;0.00;0.00;;;;;;;;;;6249927;22;20011;-90
2023/11/01 05:41:12;;;;;;;0.00;0.00;;;;;;;;;;6249071;22;20004;-90
2023/11/01 05:43:38;;;;;;;0.00;0.00;;;;;;;;;;6249689;22;20106;-90
2023/11/01 05:46:07;;;;;;;0.00;0.00;;;10.80;99.90;;;;;;6249802;22;20390;-91
2023/11/01 05:48:33;;;;;;;0.00;0.00;;;;;;;;;;6249574;22;20004;-90
2023/11/01 05:50:59;;;;;;;0.00;0.00;;;;;;;;;;6250054;22;20427;-90
2023/11/01 05:53:25;;;;;;;0.00;0.00;;;;;;;;;;6249955;22;20003;-91
2023/11/01 05:55:53;;;;;;;0.00;0.00;;;;;;;;;;6250304;22;20008;-91
2023/11/01 05:58:19;;;;;;;0.00;0.00;;;11.80;99.90;;;;;;6250049;22;20007;-90
2023/11/01 06:00:47;;;;;;;0.00;0.00;;;;;;;;;;6250439;22;20000;-90
2023/11/01 06:03:13;;;;;;;0.00;0.00;;;;;;;;;;6250142;22;20339;-90
2023/11/01 06:05:39;;;;;;;0.00;0.00;;;;;;;;;;6249920;22;20006;-90
2023/11/01 06:08:06;;;;;;;0.00;0.00;;;11.60;99.90;;;;;;6250350;22;20027;-90
2023/11/01 06:10:32;;;;;;;0.00;0.00;;;;;;;;;;6250302;22;20019;-91
2023/11/01 06:12:58;;;;;;;0.00;0.00;;;;;;;;;;6250057;22;20027;-90
2023/11/01 06:15:24;;;;;;;0.00;0.00;;;;;;;;;;6249679;22;20330;-92
2023/11/01 06:17:51;;;;;;;0.00;0.00;;;;;;;;;;6250040;22;20035;-91
2023/11/01 06:20:17;;;;;;;0.00;0.00;;;;;;;;;;6249697;22;20038;-90
2023/11/01 06:22:43;;;;;;;0.00;0.00;;;11.80;99.90;;;;;;6249641;22;20008;-88
2023/11/01 06:25:10;;;;;;;0.00;0.00;;;;;;;;;;6275825;22;20008;-89
2023/11/01 06:27:36;;;;;;;0.00;0.00;;;;;;;;;;6248963;22;20490;-88
2023/11/01 06:30:04;;;;;;;0.00;0.00;;;11.80;99.90;;;;;;6247918;22;20327;-88
2023/11/01 06:32:31;;;;;;;0.00;0.00;;;;;;;;;;6247877;22;20000;-88
2023/11/01 06:34:57;;;;;;;0.00;0.00;;;;;;;;;;6247995;22;20026;-87
2023/11/01 06:37:23;;;;;;;0.00;0.00;;;;;;;;;;6275647;22;20003;-88
2023/11/01 06:39:49;;;;;;;0.00;0.00;;;;;;;;;;6247578;22;20339;-87
2023/11/01 06:42:15;;;;;;;0.00;0.00;;;;;;;;;;6247312;22;20011;-88
2023/11/01 06:44:41;;;;;;;0.00;0.00;;;;;;;;;;6275994;22;20069;-86
2023/11/01 06:47:07;;;;;;;0.00;0.00;;;;;;;;;;6244669;22;20004;-88
2023/11/01 06:49:37;;;;;;;0.00;0.00;;;;;;;;;;6274677;22;20484;-88
2023/11/01 06:52:04;;;;;;;0.00;0.00;;;;;;;;;;6247548;22;20008;-88
2023/11/01 06:54:30;;;;;;;0.00;0.00;;;;;;;;;;6248798;22;19999;-87
2023/11/01 06:56:56;;;;;;;0.00;0.00;;;;;;;;;;6246841;22;20038;-87
2023/11/01 06:59:22;;;;;;;0.00;0.00;;;;;;;;;;6274049;22;20011;-87
2023/11/01 07:01:48;;;;;;;0.00;0.00;;;;;;;;;;6246395;22;20008;-87
2023/11/01 07:04:14;;;;;;;0.00;0.00;;;;;;;;;;6248223;22;20039;-88
2023/11/01 07:06:42;;;;;;;0.00;0.00;;;;;;;;;;6246615;22;20039;-88
2023/11/01 07:09:09;;;;;;;0.00;0.00;;;;;;;;;;6246222;22;20334;-85
2023/11/01 07:11:35;;;;;;;0.00;0.00;;;;;;;;;;6247868;22;20403;-87
2023/11/01 07:14:01;;;;;;;0.00;0.00;;;;;;;;;;6248601;22;20006;-88
2023/11/01 07:16:27;;;;;;;0.00;0.00;;;;;;;;;;6247843;22;19999;-87
2023/11/01 07:18:53;;;;;;;0.00;0.00;;;;;;;;;;6244122;22;20015;-88
2023/11/01 07:21:19;;;;;;;0.10;0.10;;;;;;;;;;6273061;22;20004;-87
2023/11/01 07:23:45;;;;;;;0.00;0.00;;;;;;;;;;6247936;22;20008;-87
2023/11/01 07:26:11;;;;;;;0.00;0.00;;;;;;;;;;6246793;22;20030;-86
2023/11/01 07:28:37;;;;;;;0.00;0.00;;;;;;;;;;6249500;22;20006;-88
2023/11/01 07:31:02;;;;;;;0.00;0.00;;;12.10;99.90;;;;;;6249498;22;20004;-88
2023/11/01 07:33:28;;;;;;;0.00;0.00;;;;;;;;;;6250013;22;20366;-88
2023/11/01 07:35:55;;;;;;;0.00;0.00;;;;;;;;;;6248291;22;20090;-88
2023/11/01 07:38:21;;;;;;;0.00;0.00;;;;;;;;;;6247826;22;20014;-87
2023/11/01 07:40:47;;;;;;;0.00;0.00;;;;;;;;;;6247778;22;20003;-89
2023/11/01 07:43:13;;;;;;;0.00;0.00;;;;;;;;;;6248159;22;20331;-89
2023/11/01 07:45:39;;;;;;;0.00;0.00;;;;;;;;;;6247302;22;20047;-89
2023/11/01 07:48:05;;;;;;;0.00;0.00;;;;;;;;;;6247367;22;20007;-89
2023/11/01 07:50:32;;;;;;;0.00;0.00;;;;;;;;;;6246899;22;20027;-89
2023/11/01 07:52:58;;;;;;;0.00;0.00;;;;;;;;;;6248294;22;20073;-88
2023/11/01 07:55:24;;;;;;;0.00;0.00;;;;;;;;;;6248250;22;20728;-89
2023/11/01 07:57:50;;;;;;;0.00;0.00;;;;;;;;;;6248394;22;20007;-89
2023/11/01 08:00:16;;;;;;;0.00;0.00;;;12.30;99.90;;;;;;6248188;22;20065;-89
2023/11/01 08:02:42;;;;;;;0.00;0.00;;;;;;;;;;6248741;22;20074;-88
2023/11/01 08:05:08;;;;;;;0.00;0.00;;;;;;;;;;6249949;22;20007;-89
2023/11/01 08:07:33;;;;;;;0.00;0.00;;;12.50;99.90;;;;;;6249664;22;20013;-89
2023/11/01 08:10:01;;;;;;;0.00;0.00;;;;;;;;;;6250009;22;20007;-89
2023/11/01 08:12:27;;;;;;;0.00;0.00;;;;;;;;;;6248787;22;20007;-88
2023/11/01 08:14:52;;;;;;;0.00;0.00;;;;;;;;;;6249380;22;20381;-90
2023/11/01 08:17:18;;;;;;;0.00;0.00;;;;;;;;;;6249699;22;20004;-89
2023/11/01 08:19:45;;;;;;;0.00;0.00;;;;;;;;;;6249754;22;20011;-88
2023/11/01 08:22:12;;;;;;;0.00;0.00;;;;;;;;;;6249784;22;20018;-89
2023/11/01 08:24:38;;;;;;;0.00;0.00;;;12.30;99.90;;;;;;6250279;22;20075;-89
2023/11/01 08:27:05;;;;;;;0.00;0.00;;;;;;;;;;6249874;22;20034;-89
2023/11/01 08:29:31;;;;;;;0.00;0.00;;;;;;;;;;6249512;22;20003;-90
2023/11/01 08:31:58;;;;;;;0.00;0.00;;;;;;;;;;6249134;22;20055;-89
2023/11/01 08:34:24;;;;;;;0.00;0.00;;;;;;;;;;6249781;22;20450;-89
2023/11/01 08:36:49;;;;;;;0.00;0.00;;;;;;;;;;6248912;22;20000;-89
2023/11/01 08:39:15;;;;;;;0.00;0.00;;;;;;;;;;6244011;22;20087;-89
2023/11/01 08:41:41;;;;;;;0.00;0.00;;;;;;;;;;6248854;22;20011;-89
2023/11/01 08:44:07;;;;;;;0.00;0.00;;;12.80;99.90;;;;;;6249394;22;20057;-89
2023/11/01 08:46:33;;;;;;;0.00;0.00;;;;;;;;;;6248991;22;20011;-90
2023/11/01 08:48:59;;;;;;;0.00;0.00;;;;;;;;;;6249676;22;20004;-89
2023/11/01 08:51:25;;;;;;;0.00;0.00;;;13.00;99.90;;;;;;6248702;22;20498;-89
2023/11/01 08:53:51;;;;;;;0.00;0.00;;;;;;;;;;6249420;22;20000;-88
2023/11/01 08:56:17;;;;;;;0.00;0.00;;;;;;;;;;6275669;22;19999;-89
2023/11/01 08:58:43;;;;;;;0.00;0.00;;;;;;;;;;6249120;22;20046;-90
2023/11/01 09:01:09;;;;;;;0.00;0.00;;;;;;;;;;6248422;22;20034;-89
2023/11/01 09:03:35;;;;;;;0.00;0.00;;;;;;;;;;6248499;22;20003;-90
2023/11/01 09:06:01;;;;;;;0.00;0.00;;;;;;;;;;6245725;22;20153;-89
2023/11/01 09:08:27;;;;;;;0.00;0.00;;;;;;;;;;6271210;22;20030;-91
2023/11/01 09:10:53;;;;;;;0.00;0.00;;;;;;;;;;6245823;22;20495;-90
2023/11/01 09:13:19;;;;;;;0.00;0.00;;;;;;;;;;6245602;22;20004;-88
2023/11/01 09:15:45;;;;;;;0.00;0.00;;;;;;;;;;6243968;22;20095;-88
2023/11/01 09:18:11;;;;;;;0.00;0.00;;;;;;;;;;6271086;22;20399;-87
2023/11/01 09:20:37;;;;;;;0.00;0.00;;;;;;;;;;6245987;22;20008;-89
2023/11/01 09:23:03;;;;;;;0.00;0.00;;;;;;;;;;6273494;22;20015;-89
2023/11/01 09:25:30;;;;;;;0.00;0.00;;;13.80;99.90;;;;;;6245096;22;20014;-88
2023/11/01 09:27:57;;;;;;;0.00;0.00;;;;;;;;;;6245448;22;20342;-88
2023/11/01 09:30:23;;;;;;;0.00;0.00;;;14.10;99.90;;;;;;6244986;22;20007;-88
2023/11/01 09:32:49;;;;;;;0.00;0.00;;;;;;;;;;6238428;22;20033;-89
2023/11/01 09:35:15;;;;;;;0.00;0.00;;;;;;;;;;6241917;22;20004;-88
2023/11/01 09:37:41;;;;;;;0.00;0.00;;;;;;;;;;6241926;22;20035;-86
2023/11/01 09:40:11;;;;;;;0.00;0.00;;;14.30;99.90;;;;;;6245194;22;20007;-88
2023/11/01 09:42:38;;;;;;;;;;;14.40;99.90;;;;;;6270744;22;20000;-88
2023/11/01 09:45:09;;;;;;;0.00;0.00;;;14.40;99.90;;;;;;6241560;22;19907;-89
2023/11/01 09:47:36;;;;;;;0.00;0.00;;;14.30;99.90;;;;;;6242139;22;20004;-89
2023/11/01 09:50:03;;;;;;;0.00;0.00;;;;;;;;;;6243472;22;20008;-89
2023/11/01 09:52:30;;;;;;;0.00;0.00;;;;;;;;;;6242666;22;20008;-89
2023/11/01 09:54:56;;;;;;;0.00;0.00;;;14.60;99.90;;;;;;6244350;22;20039;-88
2023/11/01 09:57:24;;;;;;;0.00;0.00;;;14.70;99.90;;;;;;6242989;22;20365;-88
2023/11/01 09:59:51;;;;;;;0.00;0.00;;;;;;;;;;6243145;22;20004;-89
2023/11/01 10:02:17;;;;;;;0.00;0.00;;;;;;;;;;6242788;22;20312;-88
2023/11/01 10:04:44;;;;;;;0.00;0.00;;;14.90;99.90;;;;;;6243910;22;20290;-91
2023/11/01 10:07:13;;;;;;;0.00;0.00;;;14.80;99.90;;;;;;6248235;22;20327;-90
2023/11/01 10:09:39;;;;;;;0.00;0.00;;;14.90;99.90;;;;;;6248986;22;20019;-90
2023/11/01 10:12:36;;;;;;;0.00;0.00;;;14.90;99.90;;;;;;6250848;22;20007;-90
2023/11/01 10:15:03;;;;;;;0.00;0.00;;;15.00;99.90;;;;;;6249715;22;20082;-90
2023/11/01 10:17:29;;;;;;;0.00;0.00;;;;;;;;;;6250023;22;20427;-90
2023/11/01 10:19:55;;;;;;;0.00;0.00;;;;;;;;;;6249797;22;20043;-90
2023/11/01 10:22:21;;;;;;;0.00;0.00;;;;;;;;;;6249433;22;20008;-90
2023/11/01 10:24:47;;;;;;;0.00;0.00;;;;;;;;;;6249581;22;20434;-90
2023/11/01 10:27:14;;;;;;;0.00;0.00;;;15.30;99.90;;;;;;6249536;22;20057;-90
2023/11/01 10:29:45;;;;;;;0.00;0.00;;;15.20;99.90;;;;;;6250009;22;20000;-90
2023/11/01 10:32:14;;;;;;;0.00;0.00;;;;;;;;;;6249854;22;20007;-89
2023/11/01 10:34:40;;;;;;;0.00;0.00;;;;;;;;;;6249886;22;20007;-91
2023/11/01 10:37:08;;;;;;;0.00;0.00;;;15.30;99.90;;;;;;6248313;22;20003;-90
2023/11/01 10:39:37;;;;;;;0.00;0.00;;;15.40;99.90;;;;;;6246231;22;20011;-88
2023/11/01 10:42:04;;;;;;;0.00;0.00;;;15.40;99.90;;;;;;6246978;22;20312;-88
2023/11/01 10:44:30;;;;;;;0.00;0.00;;;;;;;;;;6246009;22;20011;-87
2023/11/01 10:46:57;;;;;;;0.00;0.00;;;15.40;99.90;;;;;;6246210;22;20426;-88
2023/11/01 10:49:24;;;;;;;0.00;0.00;;;15.50;99.90;;;;;;6245918;22;20011;-87
2023/11/01 10:51:51;;;;;;;0.03;0.03;;;15.50;99.90;;;;;;6246842;22;20061;-88
2023/11/01 10:54:17;;;;;;;0.00;0.00;;;;;;;;;;6246152;22;20430;-88
2023/11/01 10:56:43;;;;;;;0.00;0.00;;;15.60;99.90;;;;;;6246380;22;20019;-88
2023/11/01 10:59:17;;;;;;;0.00;0.00;;;15.70;99.90;;;;;;6245523;22;20008;-86
2023/11/01 11:01:54;;;;;;;0.00;0.00;;;15.70;99.90;;;;;;6246380;22;20078;-86
2023/11/01 11:04:34;;;;;;;0.00;0.00;;;15.70;99.90;;;;;;6246571;22;20343;-87
2023/11/01 11:07:05;;;;;;;0.00;0.00;;;15.90;99.90;;;;;;6246897;22;20015;-88
2023/11/01 11:09:30;;;;;;;0.00;0.00;;;15.80;99.90;;;;;;6245675;22;20007;-88
2023/11/01 11:12:15;;;;;;;0.00;0.00;;;15.80;99.90;;;;;;6246326;22;20438;-88
2023/11/01 11:14:50;;;;;;;0.00;0.00;;;15.90;99.90;;;;;;6251439;22;20035;-87
2023/11/01 11:17:18;;;;;;;0.05;0.05;;;15.90;99.90;;;;;;6243992;22;20003;-88
2023/11/01 11:20:05;;;;;;;0.00;0.00;;;16.10;99.90;;;;;;6245367;22;20078;-87
2023/11/01 11:23:02;;;;;;;0.00;0.00;;;16.20;99.90;;;;;;6246319;22;20018;-88
2023/11/01 11:25:48;;;;;;;0.00;0.00;;;16.10;99.90;;;;;;6246211;22;19999;-88
2023/11/01 11:28:14;;;;;;;0.00;0.00;;;;;;;;;;6245832;22;20008;-88
2023/11/01 11:31:03;;;;;;;0.00;0.00;;;16.10;99.90;;;;;;6244228;22;20450;-88
2023/11/01 11:33:52;;;;;;;0.00;0.00;;;16.10;99.90;;;;;;6242031;22;20067;-87
2023/11/01 11:36:23;;;;;;;0.00;0.00;;;16.00;99.90;;;;;;6226522;22;20012;-88
2023/11/01 11:39:01;;;;;;;0.00;0.00;;;16.10;99.90;;;;;;6247776;22;20008;-90
2023/11/01 11:41:36;;;;;;;0.00;0.00;;;16.00;99.90;;;;;;6248074;22;20008;-89
2023/11/01 11:44:16;;;;;;;0.00;0.00;;;16.10;99.90;;;;;;6274752;22;20027;-89
2023/11/01 11:46:47;;;;;;;0.00;0.00;;;16.10;99.90;;;;;;6246750;22;20004;-89
2023/11/01 11:49:28;;;;;;;0.00;0.00;;;16.40;99.90;;;;;;6247207;22;20082;-89
2023/11/01 11:52:07;;;;;;;0.00;0.00;;;16.20;99.90;;;;;;6247761;22;20011;-88
2023/11/01 11:54:34;;;;;;;0.00;0.00;;;;;;;;;;6247924;22;20004;-87
2023/11/01 11:57:13;;;;;;;0.00;0.00;;;16.20;99.90;;;;;;6246518;22;20503;-89
2023/11/01 11:59:42;;;;;;;0.00;0.00;;;16.20;99.90;;;;;;6247010;22;20014;-89
2023/11/01 12:02:13;;;;;;;0.07;0.07;;;16.30;99.90;;;;;;6246992;22;20007;-88
2023/11/01 12:04:39;;;;;;;0.00;0.00;;;16.30;99.90;;;;;;6248418;22;20003;-90
2023/11/01 12:07:06;;;;;;;0.00;0.00;;;16.30;99.90;;;;;;6247719;22;20086;-90
2023/11/01 12:09:31;;;;;;;0.00;0.00;;;16.50;99.90;;;;;;6247784;22;20003;-87
2023/11/01 12:12:07;;;;;;;0.00;0.00;;;16.60;99.90;;;;;;6247613;22;20004;-88
2023/11/01 12:14:34;;;;;;;0.00;0.00;;;;;;;;;;6248817;22;20000;-90
2023/11/01 12:17:01;;;;;;;0.00;0.00;;;16.70;99.90;;;;;;6248107;22;20070;-89
2023/11/01 12:19:27;;;;;;;0.00;0.00;;;16.70;99.90;;;;;;6247775;22;20007;-88
2023/11/01 12:21:55;;;;;;;0.00;0.00;;;16.70;99.90;;;;;;6244371;22;20239;-89
2023/11/01 12:24:44;;;;;;;0.00;0.00;;;17.60;99.90;;;;;;6244717;22;20599;-90
2023/11/01 12:27:10;;;;;;;0.00;0.00;;;;;;;;;;6239860;22;20033;-90
2023/11/01 12:29:36;;;;;;;0.00;0.00;;;;;;;;;;6243849;22;20475;-88
2023/11/01 12:32:09;;;;;;;0.00;0.00;;;16.70;99.90;;;;;;6237847;22;20003;-88
2023/11/01 12:34:36;;;;;;;0.00;0.00;;;16.70;99.90;;;;;;6241384;22;20012;-89
2023/11/01 12:37:03;;;;;;;0.00;0.00;;;16.70;99.90;;;;;;6242941;22;20003;-89
2023/11/01 12:39:28;;;;;;;0.00;0.00;;;16.90;99.90;;;;;;6246464;22;20000;-89
2023/11/01 12:41:54;;;;;;;0.00;0.00;;;;;;;;;;6245585;22;20008;-88
2023/11/01 12:44:23;;;;;;;0.00;0.00;;;16.80;99.90;;;;;;6246695;22;20007;-88
2023/11/01 12:46:49;;;;;;;0.00;0.00;;;16.70;99.90;;;;;;6245024;22;20670;-90
2023/11/01 12:49:15;;;;;;;0.00;0.00;;;;;;;;;;6245798;22;19999;-88
2023/11/01 12:51:41;;;;;;;0.00;0.00;;;;;;;;;;6246952;22;20087;-88
2023/11/01 12:54:07;;;;;;;0.00;0.00;;;;;;;;;;6247092;22;19999;-88
2023/11/01 12:56:33;;;;;;;0.00;0.00;;;;;;;;;;6247820;22;20012;-89
2023/11/01 12:58:59;;;;;;;0.00;0.00;;;16.70;99.90;;;;;;6246185;22;20012;-88
2023/11/01 13:01:25;;;;;;;0.00;0.00;;;;;;;;;;6246287;22;20039;-89
2023/11/01 13:03:51;;;;;;;0.00;0.00;;;;;;;;;;6246884;22;20003;-88
2023/11/01 13:06:18;;;;;;;0.00;0.00;;;;;;;;;;6246946;22;20015;-87
2023/11/01 13:08:43;;;;;;;0.00;0.00;;;16.60;99.90;;;;;;6244854;22;20008;-87
2023/11/01 13:11:09;;;;;;;0.00;0.00;;;;;;;;;;6244996;22;20423;-87
2023/11/01 13:13:35;;;;;;;0.00;0.00;;;;;;;;;;6245585;22;20003;-88
2023/11/01 13:16:01;;;;;;;0.00;0.00;;;;;;;;;;6247462;22;20004;-86
2023/11/01 13:18:27;;;;;;;0.00;0.00;;;;;;;;;;6245808;22;20004;-89
2023/11/01 13:20:53;;;;;;;0.00;0.00;;;;;;;;;;6244758;22;20011;-88
2023/11/01 13:23:19;;;;;;;0.00;0.00;;;;;;;;;;6245426;22;20489;-88
2023/11/01 13:25:45;;;;;;;0.00;0.00;;;;;;;;;;6243536;22;20052;-88
2023/11/01 13:28:11;;;;;;;0.00;0.00;;;16.20;99.90;;;;;;6245225;22;20086;-88
2023/11/01 13:30:37;;;;;;;0.00;0.00;;;;;;;;;;6245317;22;20034;-87
2023/11/01 13:33:02;;;;;;;0.00;0.00;;;;;;;;;;6245412;22;20087;-89
2023/11/01 13:35:28;;;;;;;0.00;0.00;;;;;;;;;;6245400;22;20152;-87
2023/11/01 13:37:55;;;;;;;0.00;0.00;;;;;;;;;;6242800;22;20011;-88
2023/11/01 13:40:21;;;;;;;0.00;0.00;;;;;;;;;;6243895;22;20339;-87
2023/11/01 13:42:47;;;;;;;0.00;0.00;;;;;;;;;;6244954;22;20018;-87
2023/11/01 13:45:13;;;;;;;0.00;0.00;;;;;;;;;;6245572;22;20006;-88
2023/11/01 13:47:39;;;;;;;0.00;0.00;;;;;;;;;;6245398;22;20004;-88
2023/11/01 13:50:05;;;;;;;0.00;0.00;;;15.90;99.90;;;;;;6244668;22;20004;-89
2023/11/01 13:52:31;;;;;;;0.00;0.00;;;15.80;99.90;;;;;;6245392;22;20097;-88
2023/11/01 13:54:57;;;;;;;0.00;0.00;;;;;;;;;;6245113;22;19996;-87
2023/11/01 13:57:23;;;;;;;0.00;0.00;;;;;;;;;;6245207;22;20492;-87
2023/11/01 13:59:49;;;;;;;0.00;0.00;;;;;;;;;;6243658;22;20114;-87
2023/11/01 14:02:15;;;;;;;0.00;0.00;;;;;;;;;;6271582;22;20004;-87